sensor_id;sensor_type;location;lat;lon;timestamp;temperature;humidity
65478;SHT31;53678;39.642;22.430;2024-03-17T00:01:36;12.97;93.92
65478;SHT31;53678;39.642;22.430;2024-03-17T00:04:02;13.04;93.52
65478;SHT31;53678;39.642;22.430;2024-03-17T00:06:28;13.11;93.33
65478;SHT31;53678;39.642;22.430;2024-03-17T00:08:54;13.15;93.02
65478;SHT31;53678;39.642;22.430;2024-03-17T00:11:21;13.15;93.00
65478;SHT31;53678;39.642;22.430;2024-03-17T00:13:48;13.16;92.94
65478;SHT31;53678;39.642;22.430;2024-03-17T00:16:14;13.19;92.88
65478;SHT31;53678;39.642;22.430;2024-03-17T00:18:42;13.19;92.77
65478;SHT31;53678;39.642;22.430;2024-03-17T00:21:08;13.14;92.72
65478;SHT31;53678;39.642;22.430;2024-03-17T00:23:34;13.19;93.04
65478;SHT31;53678;39.642;22.430;2024-03-17T00:26:00;12.88;93.09
65478;SHT31;53678;39.642;22.430;2024-03-17T00:28:26;12.70;93.85
65478;SHT31;53678;39.642;22.430;2024-03-17T00:30:51;12.72;93.64
65478;SHT31;53678;39.642;22.430;2024-03-17T00:33:17;12.67;94.11
65478;SHT31;53678;39.642;22.430;2024-03-17T00:35:44;12.56;93.54
65478;SHT31;53678;39.642;22.430;2024-03-17T00:38:10;12.45;94.17
65478;SHT31;53678;39.642;22.430;2024-03-17T00:40:37;12.46;94.22
65478;SHT31;53678;39.642;22.430;2024-03-17T00:43:04;12.47;94.15
65478;SHT31;53678;39.642;22.430;2024-03-17T00:45:29;12.39;94.31
65478;SHT31;53678;39.642;22.430;2024-03-17T00:47:55;12.32;94.40
65478;SHT31;53678;39.642;22.430;2024-03-17T00:50:21;12.33;93.97
65478;SHT31;53678;39.642;22.430;2024-03-17T00:52:46;12.29;94.07
65478;SHT31;53678;39.642;22.430;2024-03-17T00:55:12;12.32;94.33
65478;SHT31;53678;39.642;22.430;2024-03-17T00:57:40;12.40;94.08
65478;SHT31;53678;39.642;22.430;2024-03-17T01:00:07;12.50;93.82
65478;SHT31;53678;39.642;22.430;2024-03-17T01:02:37;12.49;93.36
65478;SHT31;53678;39.642;22.430;2024-03-17T01:05:04;12.47;93.32
65478;SHT31;53678;39.642;22.430;2024-03-17T01:07:33;12.49;93.35
65478;SHT31;53678;39.642;22.430;2024-03-17T01:09:59;12.47;92.68
65478;SHT31;53678;39.642;22.430;2024-03-17T01:12:26;12.42;92.30
65478;SHT31;53678;39.642;22.430;2024-03-17T01:14:52;12.29;92.58
65478;SHT31;53678;39.642;22.430;2024-03-17T01:17:17;12.25;92.53
65478;SHT31;53678;39.642;22.430;2024-03-17T01:19:44;12.18;92.68
65478;SHT31;53678;39.642;22.430;2024-03-17T01:22:11;12.18;92.73
65478;SHT31;53678;39.642;22.430;2024-03-17T01:24:37;12.29;92.58
65478;SHT31;53678;39.642;22.430;2024-03-17T01:27:05;12.36;92.18
65478;SHT31;53678;39.642;22.430;2024-03-17T01:29:32;12.37;92.10
65478;SHT31;53678;39.642;22.430;2024-03-17T01:31:57;12.45;92.03
65478;SHT31;53678;39.642;22.430;2024-03-17T01:34:23;12.53;91.85
65478;SHT31;53678;39.642;22.430;2024-03-17T01:36:49;12.57;91.52
65478;SHT31;53678;39.642;22.430;2024-03-17T01:39:15;12.63;91.66
65478;SHT31;53678;39.642;22.430;2024-03-17T01:41:42;12.68;91.44
65478;SHT31;53678;39.642;22.430;2024-03-17T01:44:08;12.79;91.36
65478;SHT31;53678;39.642;22.430;2024-03-17T01:46:47;12.90;90.95
65478;SHT31;53678;39.642;22.430;2024-03-17T01:49:12;12.90;90.63
65478;SHT31;53678;39.642;22.430;2024-03-17T01:51:38;12.97;90.67
65478;SHT31;53678;39.642;22.430;2024-03-17T01:54:04;13.04;90.56
65478;SHT31;53678;39.642;22.430;2024-03-17T01:56:30;13.04;90.25
65478;SHT31;53678;39.642;22.430;2024-03-17T01:58:56;13.07;90.16
65478;SHT31;53678;39.642;22.430;2024-03-17T02:01:22;13.11;90.19
65478;SHT31;53678;39.642;22.430;2024-03-17T02:03:48;13.12;89.98
65478;SHT31;53678;39.642;22.430;2024-03-17T02:06:14;13.14;90.05
65478;SHT31;53678;39.642;22.430;2024-03-17T02:08:55;13.15;90.02
65478;SHT31;53678;39.642;22.430;2024-03-17T02:11:31;13.14;89.90
65478;SHT31;53678;39.642;22.430;2024-03-17T02:13:58;13.14;90.04
65478;SHT31;53678;39.642;22.430;2024-03-17T02:16:24;13.19;90.08
65478;SHT31;53678;39.642;22.430;2024-03-17T02:18:56;13.21;89.81
65478;SHT31;53678;39.642;22.430;2024-03-17T02:21:23;13.21;89.63
65478;SHT31;53678;39.642;22.430;2024-03-17T02:23:56;13.21;89.69
65478;SHT31;53678;39.642;22.430;2024-03-17T02:26:24;13.11;89.74
65478;SHT31;53678;39.642;22.430;2024-03-17T02:28:50;13.11;90.15
65478;SHT31;53678;39.642;22.430;2024-03-17T02:31:17;13.05;90.04
65478;SHT31;53678;39.642;22.430;2024-03-17T02:33:43;12.77;91.26
65478;SHT31;53678;39.642;22.430;2024-03-17T02:36:10;12.74;91.61
65478;SHT31;53678;39.642;22.430;2024-03-17T02:38:38;12.72;91.58
65478;SHT31;53678;39.642;22.430;2024-03-17T02:41:22;12.59;92.27
65478;SHT31;53678;39.642;22.430;2024-03-17T02:43:50;12.61;92.22
65478;SHT31;53678;39.642;22.430;2024-03-17T02:46:16;12.56;92.13
65478;SHT31;53678;39.642;22.430;2024-03-17T02:48:49;12.47;92.53
65478;SHT31;53678;39.642;22.430;2024-03-17T02:51:16;12.36;93.09
65478;SHT31;53678;39.642;22.430;2024-03-17T02:53:44;12.24;93.66
65478;SHT31;53678;39.642;22.430;2024-03-17T02:56:13;12.01;94.18
65478;SHT31;53678;39.642;22.430;2024-03-17T02:58:44;11.74;95.39
65478;SHT31;53678;39.642;22.430;2024-03-17T03:01:11;11.82;95.25
65478;SHT31;53678;39.642;22.430;2024-03-17T03:03:37;11.89;94.88
65478;SHT31;53678;39.642;22.430;2024-03-17T03:06:04;11.99;94.44
65478;SHT31;53678;39.642;22.430;2024-03-17T03:08:37;11.99;94.21
65478;SHT31;53678;39.642;22.430;2024-03-17T03:11:05;11.95;94.07
65478;SHT31;53678;39.642;22.430;2024-03-17T03:13:32;11.95;94.25
65478;SHT31;53678;39.642;22.430;2024-03-17T03:15:58;11.91;94.29
65478;SHT31;53678;39.642;22.430;2024-03-17T03:18:23;11.94;94.38
65478;SHT31;53678;39.642;22.430;2024-03-17T03:20:52;11.99;94.23
65478;SHT31;53678;39.642;22.430;2024-03-17T03:23:19;12.04;94.16
65478;SHT31;53678;39.642;22.430;2024-03-17T03:25:45;12.12;94.17
65478;SHT31;53678;39.642;22.430;2024-03-17T03:28:14;12.18;93.87
65478;SHT31;53678;39.642;22.430;2024-03-17T03:30:40;12.24;93.74
65478;SHT31;53678;39.642;22.430;2024-03-17T03:33:06;12.25;93.54
65478;SHT31;53678;39.642;22.430;2024-03-17T03:35:32;12.29;93.53
65478;SHT31;53678;39.642;22.430;2024-03-17T03:37:58;12.33;93.36
65478;SHT31;53678;39.642;22.430;2024-03-17T03:40:26;12.32;93.38
65478;SHT31;53678;39.642;22.430;2024-03-17T03:42:53;12.32;93.46
65478;SHT31;53678;39.642;22.430;2024-03-17T03:45:19;12.26;93.57
65478;SHT31;53678;39.642;22.430;2024-03-17T03:47:46;12.33;93.59
65478;SHT31;53678;39.642;22.430;2024-03-17T03:50:14;12.30;93.14
65478;SHT31;53678;39.642;22.430;2024-03-17T03:52:39;12.28;93.10
65478;SHT31;53678;39.642;22.430;2024-03-17T03:55:09;12.30;93.39
65478;SHT31;53678;39.642;22.430;2024-03-17T03:57:44;12.11;93.92
65478;SHT31;53678;39.642;22.430;2024-03-17T04:00:18;12.04;93.93
65478;SHT31;53678;39.642;22.430;2024-03-17T04:02:49;12.08;93.84
65478;SHT31;53678;39.642;22.430;2024-03-17T04:05:15;12.09;93.72
65478;SHT31;53678;39.642;22.430;2024-03-17T04:07:40;12.11;93.81
65478;SHT31;53678;39.642;22.430;2024-03-17T04:10:09;12.12;93.65
65478;SHT31;53678;39.642;22.430;2024-03-17T04:12:35;12.15;93.48
65478;SHT31;53678;39.642;22.430;2024-03-17T04:15:01;12.21;93.29
65478;SHT31;53678;39.642;22.430;2024-03-17T04:17:28;12.29;93.40
65478;SHT31;53678;39.642;22.430;2024-03-17T04:19:54;12.28;93.10
65478;SHT31;53678;39.642;22.430;2024-03-17T04:22:20;12.22;92.93
65478;SHT31;53678;39.642;22.430;2024-03-17T04:24:48;12.26;92.91
65478;SHT31;53678;39.642;22.430;2024-03-17T04:27:25;12.29;93.04
65478;SHT31;53678;39.642;22.430;2024-03-17T04:29:56;12.35;92.90
65478;SHT31;53678;39.642;22.430;2024-03-17T04:32:22;12.36;92.81
65478;SHT31;53678;39.642;22.430;2024-03-17T04:34:48;12.42;92.87
65478;SHT31;53678;39.642;22.430;2024-03-17T04:37:15;12.47;92.51
65478;SHT31;53678;39.642;22.430;2024-03-17T04:39:42;12.55;92.51
65478;SHT31;53678;39.642;22.430;2024-03-17T04:42:09;12.61;92.32
65478;SHT31;53678;39.642;22.430;2024-03-17T04:44:35;12.66;91.96
65478;SHT31;53678;39.642;22.430;2024-03-17T04:47:02;12.72;91.84
65478;SHT31;53678;39.642;22.430;2024-03-17T04:49:35;12.80;91.63
65478;SHT31;53678;39.642;22.430;2024-03-17T04:52:01;12.74;91.48
65478;SHT31;53678;39.642;22.430;2024-03-17T04:54:27;12.68;91.48
65478;SHT31;53678;39.642;22.430;2024-03-17T04:56:53;12.52;92.13
65478;SHT31;53678;39.642;22.430;2024-03-17T04:59:18;12.43;92.77
65478;SHT31;53678;39.642;22.430;2024-03-17T05:01:45;12.40;92.87
65478;SHT31;53678;39.642;22.430;2024-03-17T05:04:11;12.46;92.77
65478;SHT31;53678;39.642;22.430;2024-03-17T05:06:36;12.46;92.83
65478;SHT31;53678;39.642;22.430;2024-03-17T05:09:08;12.50;92.47
65478;SHT31;53678;39.642;22.430;2024-03-17T05:11:33;12.39;92.74
65478;SHT31;53678;39.642;22.430;2024-03-17T05:14:00;12.39;92.94
65478;SHT31;53678;39.642;22.430;2024-03-17T05:16:26;12.46;92.88
65478;SHT31;53678;39.642;22.430;2024-03-17T05:18:55;12.36;92.93
65478;SHT31;53678;39.642;22.430;2024-03-17T05:21:21;12.32;93.26
65478;SHT31;53678;39.642;22.430;2024-03-17T05:23:51;12.30;93.86
65478;SHT31;53678;39.642;22.430;2024-03-17T05:26:18;12.29;93.53
65478;SHT31;53678;39.642;22.430;2024-03-17T05:28:43;12.36;93.55
65478;SHT31;53678;39.642;22.430;2024-03-17T05:31:10;12.37;93.17
65478;SHT31;53678;39.642;22.430;2024-03-17T05:33:40;12.26;92.79
65478;SHT31;53678;39.642;22.430;2024-03-17T05:36:06;12.29;93.21
65478;SHT31;53678;39.642;22.430;2024-03-17T05:38:32;12.16;92.94
65478;SHT31;53678;39.642;22.430;2024-03-17T05:40:58;12.01;93.94
65478;SHT31;53678;39.642;22.430;2024-03-17T05:43:28;12.04;94.14
65478;SHT31;53678;39.642;22.430;2024-03-17T05:46:00;12.11;93.98
65478;SHT31;53678;39.642;22.430;2024-03-17T05:48:29;12.24;93.75
65478;SHT31;53678;39.642;22.430;2024-03-17T05:50:55;12.37;93.53
65478;SHT31;53678;39.642;22.430;2024-03-17T05:53:22;12.46;92.88
65478;SHT31;53678;39.642;22.430;2024-03-17T05:55:52;12.52;92.43
65478;SHT31;53678;39.642;22.430;2024-03-17T05:58:18;12.57;92.67
65478;SHT31;53678;39.642;22.430;2024-03-17T06:00:45;12.57;92.70
65478;SHT31;53678;39.642;22.430;2024-03-17T06:03:11;12.60;92.66
65478;SHT31;53678;39.642;22.430;2024-03-17T06:05:39;12.73;92.84
65478;SHT31;53678;39.642;22.430;2024-03-17T06:08:08;12.73;92.90
65478;SHT31;53678;39.642;22.430;2024-03-17T06:10:36;12.46;93.81
65478;SHT31;53678;39.642;22.430;2024-03-17T06:13:03;12.49;93.44
65478;SHT31;53678;39.642;22.430;2024-03-17T06:15:30;12.60;93.40
65478;SHT31;53678;39.642;22.430;2024-03-17T06:17:56;12.66;93.35
65478;SHT31;53678;39.642;22.430;2024-03-17T06:20:23;12.76;93.36
65478;SHT31;53678;39.642;22.430;2024-03-17T06:22:50;12.84;92.85
65478;SHT31;53678;39.642;22.430;2024-03-17T06:25:16;12.91;92.44
65478;SHT31;53678;39.642;22.430;2024-03-17T06:27:42;13.00;92.41
65478;SHT31;53678;39.642;22.430;2024-03-17T06:30:12;13.10;92.05
65478;SHT31;53678;39.642;22.430;2024-03-17T06:32:43;13.15;91.51
65478;SHT31;53678;39.642;22.430;2024-03-17T06:35:14;13.14;91.31
65478;SHT31;53678;39.642;22.430;2024-03-17T06:37:51;13.28;91.44
65478;SHT31;53678;39.642;22.430;2024-03-17T06:40:17;13.38;91.26
65478;SHT31;53678;39.642;22.430;2024-03-17T06:42:43;13.28;92.49
65478;SHT31;53678;39.642;22.430;2024-03-17T06:45:10;13.36;92.79
65478;SHT31;53678;39.642;22.430;2024-03-17T06:47:37;13.21;92.56
65478;SHT31;53678;39.642;22.430;2024-03-17T06:50:04;13.14;93.14
65478;SHT31;53678;39.642;22.430;2024-03-17T06:52:30;13.19;92.99
65478;SHT31;53678;39.642;22.430;2024-03-17T06:54:57;13.28;92.44
65478;SHT31;53678;39.642;22.430;2024-03-17T06:57:24;13.41;92.54
65478;SHT31;53678;39.642;22.430;2024-03-17T06:59:49;13.41;91.56
65478;SHT31;53678;39.642;22.430;2024-03-17T07:02:16;13.19;92.20
65478;SHT31;53678;39.642;22.430;2024-03-17T07:04:47;12.81;94.67
65478;SHT31;53678;39.642;22.430;2024-03-17T07:07:13;12.68;95.32
65478;SHT31;53678;39.642;22.430;2024-03-17T07:09:40;12.85;93.87
65478;SHT31;53678;39.642;22.430;2024-03-17T07:12:07;13.03;94.73
65478;SHT31;53678;39.642;22.430;2024-03-17T07:14:33;13.05;93.80
65478;SHT31;53678;39.642;22.430;2024-03-17T07:16:58;13.07;93.61
65478;SHT31;53678;39.642;22.430;2024-03-17T07:19:24;13.07;91.36
65478;SHT31;53678;39.642;22.430;2024-03-17T07:21:50;13.00;88.48
65478;SHT31;53678;39.642;22.430;2024-03-17T07:24:16;13.49;87.87
65478;SHT31;53678;39.642;22.430;2024-03-17T07:26:41;13.77;85.99
65478;SHT31;53678;39.642;22.430;2024-03-17T07:29:08;14.24;84.89
65478;SHT31;53678;39.642;22.430;2024-03-17T07:31:34;14.37;84.12
65478;SHT31;53678;39.642;22.430;2024-03-17T07:34:00;14.52;82.39
65478;SHT31;53678;39.642;22.430;2024-03-17T07:36:26;14.96;81.90
65478;SHT31;53678;39.642;22.430;2024-03-17T07:38:51;15.30;79.96
65478;SHT31;53678;39.642;22.430;2024-03-17T07:41:18;15.41;79.44
65478;SHT31;53678;39.642;22.430;2024-03-17T07:43:45;15.84;79.83
65478;SHT31;53678;39.642;22.430;2024-03-17T07:46:11;16.60;77.61
65478;SHT31;53678;39.642;22.430;2024-03-17T07:48:39;16.68;75.72
65478;SHT31;53678;39.642;22.430;2024-03-17T07:51:13;16.50;75.71
65478;SHT31;53678;39.642;22.430;2024-03-17T07:53:40;17.14;74.70
65478;SHT31;53678;39.642;22.430;2024-03-17T07:56:08;17.31;74.00
65478;SHT31;53678;39.642;22.430;2024-03-17T07:58:43;17.05;74.93
65478;SHT31;53678;39.642;22.430;2024-03-17T08:01:11;17.35;76.01
65478;SHT31;53678;39.642;22.430;2024-03-17T08:03:38;17.60;74.06
65478;SHT31;53678;39.642;22.430;2024-03-17T08:06:06;17.62;74.06
65478;SHT31;53678;39.642;22.430;2024-03-17T08:08:33;18.04;73.64
65478;SHT31;53678;39.642;22.430;2024-03-17T08:10:59;17.21;75.52
65478;SHT31;53678;39.642;22.430;2024-03-17T08:13:29;16.77;74.99
65478;SHT31;53678;39.642;22.430;2024-03-17T08:16:04;15.20;80.44
65478;SHT31;53678;39.642;22.430;2024-03-17T08:18:37;15.68;79.96
65478;SHT31;53678;39.642;22.430;2024-03-17T08:21:04;16.19;78.31
65478;SHT31;53678;39.642;22.430;2024-03-17T08:23:32;16.71;76.30
65478;SHT31;53678;39.642;22.430;2024-03-17T08:26:00;16.16;78.72
65478;SHT31;53678;39.642;22.430;2024-03-17T08:28:27;16.53;78.43
65478;SHT31;53678;39.642;22.430;2024-03-17T08:30:54;16.71;79.38
65478;SHT31;53678;39.642;22.430;2024-03-17T08:33:20;16.16;79.27
65478;SHT31;53678;39.642;22.430;2024-03-17T08:36:05;15.30;79.75
65478;SHT31;53678;39.642;22.430;2024-03-17T08:38:32;15.79;79.81
65478;SHT31;53678;39.642;22.430;2024-03-17T08:41:03;15.85;79.33
65478;SHT31;53678;39.642;22.430;2024-03-17T08:43:30;16.23;78.19
65478;SHT31;53678;39.642;22.430;2024-03-17T08:46:00;16.59;77.16
65478;SHT31;53678;39.642;22.430;2024-03-17T08:48:30;16.80;76.38
65478;SHT31;53678;39.642;22.430;2024-03-17T08:50:59;17.14;75.36
65478;SHT31;53678;39.642;22.430;2024-03-17T08:53:25;17.40;74.70
65478;SHT31;53678;39.642;22.430;2024-03-17T08:55:52;17.53;74.36
65478;SHT31;53678;39.642;22.430;2024-03-17T08:58:19;17.69;73.76
65478;SHT31;53678;39.642;22.430;2024-03-17T09:00:47;17.80;74.05
65478;SHT31;53678;39.642;22.430;2024-03-17T09:03:13;17.89;73.50
65478;SHT31;53678;39.642;22.430;2024-03-17T09:05:44;17.94;73.16
65478;SHT31;53678;39.642;22.430;2024-03-17T09:08:21;17.91;72.11
65478;SHT31;53678;39.642;22.430;2024-03-17T09:10:51;18.18;71.99
65478;SHT31;53678;39.642;22.430;2024-03-17T09:13:24;17.72;72.68
65478;SHT31;53678;39.642;22.430;2024-03-17T09:15:55;17.40;73.42
65478;SHT31;53678;39.642;22.430;2024-03-17T09:18:26;17.31;73.97
65478;SHT31;53678;39.642;22.430;2024-03-17T09:21:10;17.52;73.05
65478;SHT31;53678;39.642;22.430;2024-03-17T09:23:38;17.43;72.99
65478;SHT31;53678;39.642;22.430;2024-03-17T09:26:06;17.18;73.47
65478;SHT31;53678;39.642;22.430;2024-03-17T09:28:37;17.32;75.97
65478;SHT31;53678;39.642;22.430;2024-03-17T09:31:03;17.52;74.49
65478;SHT31;53678;39.642;22.430;2024-03-17T09:33:33;17.53;72.64
65478;SHT31;53678;39.642;22.430;2024-03-17T09:36:03;16.78;75.57
65478;SHT31;53678;39.642;22.430;2024-03-17T09:38:32;17.14;74.35
65478;SHT31;53678;39.642;22.430;2024-03-17T09:40:58;17.16;74.03
65478;SHT31;53678;39.642;22.430;2024-03-17T09:43:27;17.35;73.77
65478;SHT31;53678;39.642;22.430;2024-03-17T09:45:58;17.10;73.84
65478;SHT31;53678;39.642;22.430;2024-03-17T09:48:25;17.18;73.65
65478;SHT31;53678;39.642;22.430;2024-03-17T09:50:52;17.46;72.13
65478;SHT31;53678;39.642;22.430;2024-03-17T09:53:26;17.53;69.84
65478;SHT31;53678;39.642;22.430;2024-03-17T09:55:54;17.65;69.92
65478;SHT31;53678;39.642;22.430;2024-03-17T09:58:21;18.02;70.23
65478;SHT31;53678;39.642;22.430;2024-03-17T10:00:47;18.17;69.29
65478;SHT31;53678;39.642;22.430;2024-03-17T10:05:59;17.81;71.48
65478;SHT31;53678;39.642;22.430;2024-03-17T10:08:25;17.42;72.05
65478;SHT31;53678;39.642;22.430;2024-03-17T10:10:52;17.53;72.06
65478;SHT31;53678;39.642;22.430;2024-03-17T10:13:19;17.72;72.69
65478;SHT31;53678;39.642;22.430;2024-03-17T10:15:48;17.74;71.70
65478;SHT31;53678;39.642;22.430;2024-03-17T10:18:22;17.52;71.70
65478;SHT31;53678;39.642;22.430;2024-03-17T10:20:51;17.53;71.70
65478;SHT31;53678;39.642;22.430;2024-03-17T10:23:22;17.65;72.10
65478;SHT31;53678;39.642;22.430;2024-03-17T10:25:48;17.80;71.22
65478;SHT31;53678;39.642;22.430;2024-03-17T10:28:15;18.05;71.38
65478;SHT31;53678;39.642;22.430;2024-03-17T10:30:42;18.04;70.88
65478;SHT31;53678;39.642;22.430;2024-03-17T10:33:27;18.08;71.02
65478;SHT31;53678;39.642;22.430;2024-03-17T10:35:58;17.98;70.50
65478;SHT31;53678;39.642;22.430;2024-03-17T10:38:28;17.87;70.38
65478;SHT31;53678;39.642;22.430;2024-03-17T10:40:54;17.66;74.03
65478;SHT31;53678;39.642;22.430;2024-03-17T10:43:20;17.77;75.30
65478;SHT31;53678;39.642;22.430;2024-03-17T10:45:52;17.60;76.54
65478;SHT31;53678;39.642;22.430;2024-03-17T10:48:21;17.60;76.87
65478;SHT31;53678;39.642;22.430;2024-03-17T10:50:50;17.65;76.46
65478;SHT31;53678;39.642;22.430;2024-03-17T10:53:20;17.56;76.94
65478;SHT31;53678;39.642;22.430;2024-03-17T10:56:03;17.63;76.54
65478;SHT31;53678;39.642;22.430;2024-03-17T10:58:35;17.57;76.55
65478;SHT31;53678;39.642;22.430;2024-03-17T11:01:11;17.49;77.07
65478;SHT31;53678;39.642;22.430;2024-03-17T11:03:38;17.35;77.90
65478;SHT31;53678;39.642;22.430;2024-03-17T11:06:06;17.32;77.83
65478;SHT31;53678;39.642;22.430;2024-03-17T11:08:34;17.14;78.34
65478;SHT31;53678;39.642;22.430;2024-03-17T11:11:01;17.16;77.85
65478;SHT31;53678;39.642;22.430;2024-03-17T11:13:30;17.23;77.18
65478;SHT31;53678;39.642;22.430;2024-03-17T11:15:57;17.47;77.05
65478;SHT31;53678;39.642;22.430;2024-03-17T11:21:06;17.76;75.94
65478;SHT31;53678;39.642;22.430;2024-03-17T11:23:41;17.76;76.05
65478;SHT31;53678;39.642;22.430;2024-03-17T11:26:08;17.86;75.69
65478;SHT31;53678;39.642;22.430;2024-03-17T11:31:34;18.00;75.62
65478;SHT31;53678;39.642;22.430;2024-03-17T11:34:03;18.00;75.25
65478;SHT31;53678;39.642;22.430;2024-03-17T11:36:34;18.05;75.07
65478;SHT31;53678;39.642;22.430;2024-03-17T11:39:08;17.91;75.26
65478;SHT31;53678;39.642;22.430;2024-03-17T11:41:49;17.67;76.24
65478;SHT31;53678;39.642;22.430;2024-03-17T11:47:04;17.66;74.95
65478;SHT31;53678;39.642;22.430;2024-03-17T11:49:33;17.72;74.96
65478;SHT31;53678;39.642;22.430;2024-03-17T11:52:00;17.65;74.06
65478;SHT31;53678;39.642;22.430;2024-03-17T11:54:29;17.62;74.52
65478;SHT31;53678;39.642;22.430;2024-03-17T11:57:05;17.86;74.61
65478;SHT31;53678;39.642;22.430;2024-03-17T11:59:32;17.77;74.37
65478;SHT31;53678;39.642;22.430;2024-03-17T12:01:58;17.79;73.35
65478;SHT31;53678;39.642;22.430;2024-03-17T12:04:25;17.90;72.67
65478;SHT31;53678;39.642;22.430;2024-03-17T12:06:52;17.80;72.14
65478;SHT31;53678;39.642;22.430;2024-03-17T12:14:41;18.07;71.95
65478;SHT31;53678;39.642;22.430;2024-03-17T12:17:09;17.97;72.57
65478;SHT31;53678;39.642;22.430;2024-03-17T12:19:35;17.81;72.37
65478;SHT31;53678;39.642;22.430;2024-03-17T12:22:02;17.67;72.60
65478;SHT31;53678;39.642;22.430;2024-03-17T12:24:35;17.60;72.64
65478;SHT31;53678;39.642;22.430;2024-03-17T12:27:05;17.50;72.81
65478;SHT31;53678;39.642;22.430;2024-03-17T12:29:35;17.36;73.55
65478;SHT31;53678;39.642;22.430;2024-03-17T12:32:45;17.29;73.13
65478;SHT31;53678;39.642;22.430;2024-03-17T12:34:53;17.16;74.16
65478;SHT31;53678;39.642;22.430;2024-03-17T12:37:23;16.91;74.85
65478;SHT31;53678;39.642;22.430;2024-03-17T12:40:00;16.74;76.04
65478;SHT31;53678;39.642;22.430;2024-03-17T12:42:27;16.57;77.61
65478;SHT31;53678;39.642;22.430;2024-03-17T12:44:57;16.32;78.30
65478;SHT31;53678;39.642;22.430;2024-03-17T12:47:29;16.17;79.35
65478;SHT31;53678;39.642;22.430;2024-03-17T12:49:56;15.64;83.29
65478;SHT31;53678;39.642;22.430;2024-03-17T12:57:48;14.34;89.33
65478;SHT31;53678;39.642;22.430;2024-03-17T13:00:33;14.10;90.44
65478;SHT31;53678;39.642;22.430;2024-03-17T13:03:05;14.04;89.60
65478;SHT31;53678;39.642;22.430;2024-03-17T13:05:35;14.06;90.25
65478;SHT31;53678;39.642;22.430;2024-03-17T13:08:01;14.10;89.83
65478;SHT31;53678;39.642;22.430;2024-03-17T13:10:28;14.13;90.08
65478;SHT31;53678;39.642;22.430;2024-03-17T13:13:04;14.07;91.04
65478;SHT31;53678;39.642;22.430;2024-03-17T13:15:31;14.09;90.83
65478;SHT31;53678;39.642;22.430;2024-03-17T13:17:58;14.07;91.30
65478;SHT31;53678;39.642;22.430;2024-03-17T13:20:24;13.77;91.15
65478;SHT31;53678;39.642;22.430;2024-03-17T13:22:50;13.87;89.75
65478;SHT31;53678;39.642;22.430;2024-03-17T13:25:25;13.97;88.95
65478;SHT31;53678;39.642;22.430;2024-03-17T13:27:53;14.06;88.26
65478;SHT31;53678;39.642;22.430;2024-03-17T13:30:21;14.13;86.54
65478;SHT31;53678;39.642;22.430;2024-03-17T13:32:51;14.07;87.29
65478;SHT31;53678;39.642;22.430;2024-03-17T13:35:26;14.16;87.44
65478;SHT31;53678;39.642;22.430;2024-03-17T13:37:53;14.04;87.66
65478;SHT31;53678;39.642;22.430;2024-03-17T13:40:20;14.20;86.30
65478;SHT31;53678;39.642;22.430;2024-03-17T13:42:47;14.49;86.14
65478;SHT31;53678;39.642;22.430;2024-03-17T13:45:13;14.57;86.55
65478;SHT31;53678;39.642;22.430;2024-03-17T13:47:40;14.76;86.27
65478;SHT31;53678;39.642;22.430;2024-03-17T13:50:07;14.80;85.84
65478;SHT31;53678;39.642;22.430;2024-03-17T13:52:39;14.88;84.85
65478;SHT31;53678;39.642;22.430;2024-03-17T13:55:17;14.86;84.52
65478;SHT31;53678;39.642;22.430;2024-03-17T13:57:45;15.00;84.67
65478;SHT31;53678;39.642;22.430;2024-03-17T14:00:12;15.24;84.60
65478;SHT31;53678;39.642;22.430;2024-03-17T14:02:47;15.59;84.72
65478;SHT31;53678;39.642;22.430;2024-03-17T14:05:18;15.75;84.13
65478;SHT31;53678;39.642;22.430;2024-03-17T14:07:44;15.84;82.79
65478;SHT31;53678;39.642;22.430;2024-03-17T14:10:13;15.82;81.58
65478;SHT31;53678;39.642;22.430;2024-03-17T14:12:39;15.84;80.53
65478;SHT31;53678;39.642;22.430;2024-03-17T14:15:07;16.02;79.97
65478;SHT31;53678;39.642;22.430;2024-03-17T14:17:39;16.02;78.97
65478;SHT31;53678;39.642;22.430;2024-03-17T14:20:06;15.81;78.55
65478;SHT31;53678;39.642;22.430;2024-03-17T14:22:42;15.55;77.91
65478;SHT31;53678;39.642;22.430;2024-03-17T14:25:15;15.41;79.60
65478;SHT31;53678;39.642;22.430;2024-03-17T14:27:41;15.23;77.71
65478;SHT31;53678;39.642;22.430;2024-03-17T14:30:07;15.26;78.41
65478;SHT31;53678;39.642;22.430;2024-03-17T14:32:33;15.38;78.31
65478;SHT31;53678;39.642;22.430;2024-03-17T14:35:00;15.51;78.19
65478;SHT31;53678;39.642;22.430;2024-03-17T14:37:26;15.71;77.97
65478;SHT31;53678;39.642;22.430;2024-03-17T14:39:54;15.68;78.02
65478;SHT31;53678;39.642;22.430;2024-03-17T14:42:21;15.79;78.99
65478;SHT31;53678;39.642;22.430;2024-03-17T14:44:47;15.85;78.25
65478;SHT31;53678;39.642;22.430;2024-03-17T14:47:14;15.82;76.73
65478;SHT31;53678;39.642;22.430;2024-03-17T14:49:39;15.85;76.19
65478;SHT31;53678;39.642;22.430;2024-03-17T14:52:07;15.99;76.06
65478;SHT31;53678;39.642;22.430;2024-03-17T14:54:35;15.88;75.99
65478;SHT31;53678;39.642;22.430;2024-03-17T14:57:02;15.88;74.27
65478;SHT31;53678;39.642;22.430;2024-03-17T14:59:28;15.77;74.92
65478;SHT31;53678;39.642;22.430;2024-03-17T15:01:54;15.68;76.57
65478;SHT31;53678;39.642;22.430;2024-03-17T15:04:20;15.74;77.35
65478;SHT31;53678;39.642;22.430;2024-03-17T15:06:46;15.85;77.79
65478;SHT31;53678;39.642;22.430;2024-03-17T15:09:12;15.92;77.93
65478;SHT31;53678;39.642;22.430;2024-03-17T15:11:39;16.02;78.03
65478;SHT31;53678;39.642;22.430;2024-03-17T15:14:04;15.99;76.74
65478;SHT31;53678;39.642;22.430;2024-03-17T15:16:37;15.98;74.96
65478;SHT31;53678;39.642;22.430;2024-03-17T15:19:07;15.94;74.16
65478;SHT31;53678;39.642;22.430;2024-03-17T15:21:33;15.92;74.71
65478;SHT31;53678;39.642;22.430;2024-03-17T15:24:00;15.89;74.66
65478;SHT31;53678;39.642;22.430;2024-03-17T15:26:29;15.81;75.11
65478;SHT31;53678;39.642;22.430;2024-03-17T15:28:55;15.64;74.67
65478;SHT31;53678;39.642;22.430;2024-03-17T15:31:21;15.74;75.35
65478;SHT31;53678;39.642;22.430;2024-03-17T15:33:50;15.79;75.57
65478;SHT31;53678;39.642;22.430;2024-03-17T15:36:16;15.82;75.40
65478;SHT31;53678;39.642;22.430;2024-03-17T15:38:42;15.84;74.90
65478;SHT31;53678;39.642;22.430;2024-03-17T15:41:11;15.79;74.55
65478;SHT31;53678;39.642;22.430;2024-03-17T15:43:38;15.74;75.67